Time;durP1;ratioP1;P1;durP2;ratioP2;P2;SDS_P1;SDS_P2;PMS_P1;PMS_P2;Temp;Humidity;BMP_temperature;BMP_pressure;BME280_temperature;BME280_humidity;BME280_pressure;Samples;Min_cycle;Max_cycle;Signal;HPM_P1;HPM_P2
2023/01/20 00:01:50;;;;;;;151.07;112.25;;;;;;;;;;5004287;28;20103;-79
2023/01/20 00:04:17;;;;;;;217.25;158.85;;;;;;;;;;5001532;28;20471;-80
2023/01/20 00:06:43;;;;;;;104.13;82.47;;;;;;;;;;4990476;28;20440;-78
2023/01/20 00:09:12;;;;;;;90.43;78.43;;;;;;;;;;5002873;28;20116;-80
2023/01/20 00:11:37;;;;;;;78.80;63.38;;;;;;;;;;5003923;28;20056;-80
2023/01/20 00:14:03;;;;;;;241.23;154.52;;;;;;;;;;5004411;28;20037;-79
2023/01/20 00:16:30;;;;;;;227.48;154.50;;;;;;;;;;4993273;28;20341;-79
2023/01/20 00:18:55;;;;;;;154.07;111.55;;;;;;;;;;5002172;28;20033;-77
2023/01/20 00:21:21;;;;;;;170.85;126.43;;;;;;;;;;4997391;28;20032;-79
2023/01/20 00:23:47;;;;;;;153.48;112.28;;;;;;;;;;4997516;28;20429;-79
2023/01/20 00:26:15;;;;;;;106.72;78.82;;;;;;;;;;5004100;28;20823;-79
2023/01/20 00:28:40;;;;;;;73.65;54.38;;;;;;;;;;5002975;28;20248;-77
2023/01/20 00:31:33;;;;;;;43.38;36.15;;;;;;;;;;5003740;28;20524;-81
2023/01/20 00:33:59;;;;;;;45.22;33.05;;;;;;;;;;4976642;28;20397;-77
2023/01/20 00:36:25;;;;;;;107.93;82.47;;;;;;;;;;4978656;28;20120;-76
2023/01/20 00:38:50;;;;;;;88.75;63.95;;;;;;;;;;4973416;28;20438;-77
2023/01/20 00:41:16;;;;;;;73.65;59.08;;;;;;;;;;4980273;28;20054;-79
2023/01/20 00:43:41;;;;;;;64.90;50.95;;;;;;;;;;4979778;28;20101;-79
2023/01/20 00:46:07;;;;;;;60.03;47.30;;;;;;;;;;4980559;28;20052;-79
2023/01/20 00:48:32;;;;;;;57.03;42.13;;;;;;;;;;4981781;28;20117;-78
2023/01/20 00:50:57;;;;;;;50.22;38.13;;;;;;;;;;4980473;28;20373;-80
2023/01/20 00:53:23;;;;;;;49.65;41.15;;;;;;;;;;4980062;28;20034;-78
2023/01/20 00:55:48;;;;;;;81.97;64.05;;;;;;;;;;4981490;28;20030;-75
2023/01/20 00:58:14;;;;;;;96.70;71.72;;;;;;;;;;4974749;28;20053;-78
2023/01/20 01:00:39;;;;;;;149.77;107.05;;;;;;;;;;4984570;28;20116;-78
2023/01/20 01:03:04;;;;;;;121.35;89.78;;;;;;;;;;4982984;28;20030;-78
2023/01/20 01:05:30;;;;;;;140.40;107.15;;;;;;;;;;4986315;28;20090;-79
2023/01/20 01:07:55;;;;;;;118.13;88.88;;;;;;;;;;4984043;28;20042;-80
2023/01/20 01:10:20;;;;;;;105.90;83.80;;;;;;;;;;4991245;28;20322;-79
2023/01/20 01:12:46;;;;;;;97.50;78.28;;;;;;;;;;5005111;28;20105;-80
2023/01/20 01:15:11;;;;;;;111.18;88.50;;;;;;;;;;4997157;28;20044;-80
2023/01/20 01:17:36;;;;;;;127.88;102.10;;;;;;;;;;5006903;28;20353;-81
2023/01/20 01:20:02;;;;;;;139.40;103.60;;;;;;;;;;5006647;28;20484;-81
2023/01/20 01:22:28;;;;;;;143.85;108.13;;;;;;;;;;5005618;28;20115;-80
2023/01/20 01:24:53;;;;;;;186.10;148.25;;;;;;;;;;5007384;28;20072;-78
2023/01/20 01:27:18;;;;;;;130.50;100.03;;;;;;;;;;5007164;28;20618;-78
2023/01/20 01:29:43;;;;;;;119.13;88.60;;;;;;;;;;4994447;28;20029;-78
2023/01/20 01:32:09;;;;;;;116.53;93.05;;;;;;;;;;5005863;28;20433;-78
2023/01/20 01:34:34;;;;;;;116.57;95.68;;;;;;;;;;5006745;28;20033;-79
2023/01/20 01:36:59;;;;;;;109.85;85.88;;;;;;;;;;5005576;28;20029;-80
2023/01/20 01:39:26;;;;;;;109.22;91.25;;;;;;;;;;5005895;28;20113;-78
2023/01/20 01:41:51;;;;;;;131.77;101.80;;;;;;;;;;5004652;28;20049;-78
2023/01/20 01:44:16;;;;;;;132.25;107.35;;;;;;;;;;5004805;28;20068;-78
2023/01/20 01:46:42;;;;;;;130.95;102.35;;;;;;;;;;5005048;28;20029;-78
2023/01/20 01:49:07;;;;;;;126.53;94.88;;;;;;;;;;5006613;28;20135;-78
2023/01/20 01:51:35;;;;;;;161.98;125.88;;;;;;;;;;5004808;28;20040;-77
2023/01/20 01:54:22;;;;;;;208.68;156.88;;;;;;;;;;5004702;28;20037;-78
2023/01/20 01:56:48;;;;;;;96.80;81.72;;;;;;;;;;5004529;28;20025;-77
2023/01/20 01:59:14;;;;;;;108.28;86.85;;;;;;;;;;5005086;28;20030;-78
2023/01/20 02:01:41;;;;;;;103.75;84.53;;;;;;;;;;5005499;28;20033;-79
2023/01/20 02:04:12;;;;;;;103.13;83.38;;;;;;;;;;5004978;28;20034;-78
2023/01/20 02:06:48;;;;;;;94.78;77.70;;;;;;;;;;5004147;28;20123;-78
2023/01/20 02:09:14;;;;;;;83.28;66.78;;;;;;;;;;5006202;28;20088;-79
2023/01/20 02:11:47;;;;;;;73.80;58.28;;;;;;;;;;5005258;28;20029;-78
2023/01/20 02:14:13;;;;;;;98.95;77.75;;;;;;;;;;4998966;28;20121;-79
2023/01/20 02:16:38;;;;;;;126.90;102.78;;;;;;;;;;4999074;28;20025;-77
2023/01/20 02:19:12;;;;;;;132.50;110.55;;;;;;;;;;5005896;28;20030;-77
2023/01/20 02:21:56;;;;;;;148.65;118.38;;;;;;;;;;5005043;28;20033;-78
2023/01/20 02:24:48;;;;;;;135.02;107.00;;;;;;;;;;5004711;28;20030;-78
2023/01/20 02:27:18;;;;;;;105.40;81.95;;;;;;;;;;5005702;28;20096;-77
2023/01/20 02:29:49;;;;;;;90.28;71.53;;;;;;;;;;5004375;28;20072;-77
2023/01/20 02:32:33;;;;;;;95.80;74.63;;;;;;;;;;5006307;28;20087;-78
2023/01/20 02:35:25;;;;;;;108.05;82.10;;;;;;;;;;5003938;28;20468;-78
2023/01/20 02:37:56;;;;;;;119.25;90.55;;;;;;;;;;5003420;28;20180;-78
2023/01/20 02:40:29;;;;;;;106.43;81.32;;;;;;;;;;5004986;28;20425;-79
2023/01/20 02:42:59;;;;;;;89.90;68.47;;;;;;;;;;5005363;28;20392;-78
2023/01/20 02:45:27;;;;;;;60.67;47.25;;;;;;;;;;5003549;28;20030;-79
2023/01/20 02:48:00;;;;;;;54.03;41.60;;;;;;;;;;5005779;28;20143;-79
2023/01/20 02:50:32;;;;;;;89.70;64.63;;;;;;;;;;5004493;28;20298;-78
2023/01/20 02:52:58;;;;;;;51.28;37.20;;;;;;;;;;5004934;28;20032;-78
2023/01/20 02:55:35;;;;;;;32.88;25.45;;;;;;;;;;5004951;28;20087;-78
2023/01/20 02:58:09;;;;;;;19.92;15.73;;;;;;;;;;5005149;28;20117;-76
2023/01/20 03:00:54;;;;;;;18.63;14.82;;;;;;;;;;5005460;28;20135;-77
2023/01/20 03:03:25;;;;;;;16.17;12.35;;;;;;;;;;5005316;28;20029;-80
2023/01/20 03:05:54;;;;;;;16.40;13.85;;;;;;;;;;5005697;28;20021;-80
2023/01/20 03:08:20;;;;;;;15.25;10.90;;;;;;;;;;5003263;28;20026;-80
2023/01/20 03:10:46;;;;;;;19.95;14.48;;;;;;;;;;5004988;28;20030;-79
2023/01/20 03:13:18;;;;;;;28.85;20.02;;;;;;;;;;5003781;28;20073;-80
2023/01/20 03:15:52;;;;;;;26.40;19.67;;;;;;;;;;5004469;28;20025;-78
2023/01/20 03:18:17;;;;;;;26.52;21.00;;;;;;;;;;5004134;28;20026;-79
2023/01/20 03:20:43;;;;;;;25.65;18.15;;;;;;;;;;5003539;28;20037;-80
2023/01/20 03:23:08;;;;;;;16.00;12.43;;;;;;;;;;5003244;28;20029;-79
2023/01/20 03:25:34;;;;;;;20.73;14.15;;;;;;;;;;5003947;28;20026;-80
2023/01/20 03:28:00;;;;;;;66.70;39.08;;;;;;;;;;5002943;28;21059;-79
2023/01/20 03:30:25;;;;;;;49.25;25.60;;;;;;;;;;5004039;28;20068;-81
2023/01/20 03:32:51;;;;;;;40.35;21.45;;;;;;;;;;5003967;28;20072;-80
2023/01/20 03:35:16;;;;;;;33.05;19.13;;;;;;;;;;5003581;28;20428;-79
2023/01/20 03:37:42;;;;;;;32.22;20.73;;;;;;;;;;5005381;28;20037;-79
2023/01/20 03:40:08;;;;;;;62.90;43.15;;;;;;;;;;5003918;28;20038;-80
2023/01/20 03:42:38;;;;;;;44.20;31.38;;;;;;;;;;4997689;28;20041;-79
2023/01/20 03:45:06;;;;;;;31.30;21.83;;;;;;;;;;4995126;28;20136;-78
2023/01/20 03:47:40;;;;;;;97.68;54.92;;;;;;;;;;5004786;28;20125;-80
2023/01/20 03:50:06;;;;;;;39.90;25.63;;;;;;;;;;5001936;28;21009;-79
2023/01/20 03:52:43;;;;;;;44.72;33.05;;;;;;;;;;5003607;28;20022;-79
2023/01/20 03:55:17;;;;;;;42.58;31.35;;;;;;;;;;5003993;28;20038;-80
2023/01/20 03:57:50;;;;;;;69.18;43.42;;;;;;;;;;5003020;28;20048;-79
2023/01/20 04:00:16;;;;;;;18.15;11.80;;;;;;;;;;5004355;28;20021;-79
2023/01/20 04:02:42;;;;;;;17.80;12.50;;;;;;;;;;4993777;28;20088;-80
2023/01/20 04:05:08;;;;;;;20.95;15.43;;;;;;;;;;4998835;28;20357;-79
2023/01/20 04:07:35;;;;;;;52.42;37.03;;;;;;;;;;5002795;28;20030;-78
2023/01/20 04:10:06;;;;;;;72.38;40.38;;;;;;;;;;5003849;28;20088;-78
2023/01/20 04:12:31;;;;;;;178.07;47.90;;;;;;;;;;5004429;28;20065;-77
2023/01/20 04:14:56;;;;;;;164.07;44.97;;;;;;;;;;5004497;28;20064;-78
2023/01/20 04:17:25;;;;;;;148.88;47.30;;;;;;;;;;5002114;28;20418;-79
2023/01/20 04:19:50;;;;;;;183.70;44.50;;;;;;;;;;4990859;28;20105;-78
2023/01/20 04:22:25;;;;;;;170.55;38.83;;;;;;;;;;4993942;28;20128;-79
2023/01/20 04:24:50;;;;;;;179.93;43.90;;;;;;;;;;5003275;28;20040;-78
2023/01/20 04:27:15;;;;;;;216.73;47.85;;;;;;;;;;5002039;28;20409;-78
2023/01/20 04:29:41;;;;;;;52.63;29.58;;;;;;;;;;5002392;28;20038;-79
2023/01/20 04:32:08;;;;;;;28.77;22.30;;;;;;;;;;5002780;28;20053;-79
2023/01/20 04:34:34;;;;;;;19.67;17.60;;;;;;;;;;4991913;28;20034;-79
2023/01/20 04:36:59;;;;;;;19.15;16.00;;;;;;;;;;5017554;28;20040;-79
2023/01/20 04:39:24;;;;;;;16.92;15.13;;;;;;;;;;5002177;28;20084;-79
2023/01/20 04:41:49;;;;;;;17.83;12.93;;;;;;;;;;5003014;28;20053;-79
2023/01/20 04:44:15;;;;;;;12.35;11.05;;;;;;;;;;5003007;28;20025;-79
2023/01/20 04:46:40;;;;;;;12.50;9.85;;;;;;;;;;5002580;28;20030;-76
2023/01/20 04:49:05;;;;;;;9.93;8.88;;;;;;;;;;5002390;28;20021;-78
2023/01/20 04:51:31;;;;;;;9.10;8.18;;;;;;;;;;4992005;28;20069;-78
2023/01/20 04:53:57;;;;;;;9.98;8.13;;;;;;;;;;4994031;28;20053;-78
2023/01/20 04:56:23;;;;;;;12.45;8.55;;;;;;;;;;4987911;28;20018;-80
2023/01/20 04:58:48;;;;;;;14.80;12.90;;;;;;;;;;4992772;28;20125;-81
2023/01/20 05:01:13;;;;;;;14.23;12.63;;;;;;;;;;5001773;28;20117;-79
2023/01/20 05:03:38;;;;;;;26.77;21.67;;;;;;;;;;4989060;28;20018;-79
2023/01/20 05:06:05;;;;;;;28.55;23.90;;;;;;;;;;4989939;28;20022;-78
2023/01/20 05:08:30;;;;;;;26.83;21.77;;;;;;;;;;4989735;28;20124;-78
2023/01/20 05:10:56;;;;;;;25.20;19.85;;;;;;;;;;4992346;28;20529;-78
2023/01/20 05:13:21;;;;;;;25.05;20.55;;;;;;;;;;5003284;28;20553;-78
2023/01/20 05:15:46;;;;;;;114.05;44.25;;;;;;;;;;5001504;28;20048;-78
2023/01/20 05:18:12;;;;;;;74.13;52.40;;;;;;;;;;5001698;28;20056;-78
2023/01/20 05:20:37;;;;;;;50.78;37.22;;;;;;;;;;5000842;28;20025;-78
2023/01/20 05:23:02;;;;;;;57.60;41.67;;;;;;;;;;5002565;28;20107;-79
2023/01/20 05:25:28;;;;;;;36.45;31.40;;;;;;;;;;5002945;28;20123;-79
2023/01/20 05:27:53;;;;;;;79.38;58.35;;;;;;;;;;5002022;28;20030;-78
2023/01/20 05:30:18;;;;;;;48.38;40.28;;;;;;;;;;4991891;28;20026;-78
2023/01/20 05:32:44;;;;;;;43.80;35.47;;;;;;;;;;4991660;28;20029;-78
2023/01/20 05:35:10;;;;;;;31.00;24.80;;;;;;;;;;4992140;28;20025;-77
2023/01/20 05:37:35;;;;;;;30.45;23.33;;;;;;;;;;5000366;28;20776;-78
2023/01/20 05:40:00;;;;;;;33.83;27.27;;;;;;;;;;5002196;28;20033;-77
2023/01/20 05:42:26;;;;;;;40.58;33.00;;;;;;;;;;5004442;28;20160;-77
2023/01/20 05:44:51;;;;;;;39.40;34.03;;;;;;;;;;5005740;28;20068;-78
2023/01/20 05:47:16;;;;;;;62.20;47.28;;;;;;;;;;4999817;28;20349;-79
2023/01/20 05:49:43;;;;;;;29.10;22.23;;;;;;;;;;5004151;28;20038;-77
2023/01/20 05:52:08;;;;;;;24.95;21.20;;;;;;;;;;4997597;28;20029;-77
2023/01/20 05:54:33;;;;;;;36.15;25.45;;;;;;;;;;5004653;28;21138;-76
2023/01/20 05:56:58;;;;;;;87.10;64.63;;;;;;;;;;5005518;28;20036;-77
2023/01/20 05:59:24;;;;;;;55.00;41.50;;;;;;;;;;5005230;28;20040;-78
2023/01/20 06:01:49;;;;;;;34.83;25.63;;;;;;;;;;5003835;28;20120;-80
2023/01/20 06:04:14;;;;;;;66.70;47.85;;;;;;;;;;5005479;28;20340;-80
2023/01/20 06:06:40;;;;;;;38.35;28.77;;;;;;;;;;5004971;28;20076;-78
2023/01/20 06:09:05;;;;;;;59.40;51.30;;;;;;;;;;5005906;28;20131;-78
2023/01/20 06:11:31;;;;;;;37.88;31.88;;;;;;;;;;5005279;28;20456;-77
2023/01/20 06:13:56;;;;;;;21.23;18.85;;;;;;;;;;5006225;28;20041;-78
2023/01/20 06:16:21;;;;;;;25.08;22.10;;;;;;;;;;5006063;28;20045;-77
2023/01/20 06:18:47;;;;;;;73.70;38.65;;;;;;;;;;5004889;28;20164;-78
2023/01/20 06:21:12;;;;;;;50.80;33.25;;;;;;;;;;5006049;28;20310;-77
2023/01/20 06:23:37;;;;;;;38.55;34.38;;;;;;;;;;5003977;28;20072;-77
2023/01/20 06:26:04;;;;;;;27.02;22.58;;;;;;;;;;5006504;28;20031;-77
2023/01/20 06:28:31;;;;;;;95.30;49.75;;;;;;;;;;5004376;28;20042;-77
2023/01/20 06:31:03;;;;;;;44.72;34.67;;;;;;;;;;5004822;28;20025;-78
2023/01/20 06:33:28;;;;;;;22.05;18.08;;;;;;;;;;5005721;28;20026;-77
2023/01/20 06:35:54;;;;;;;39.15;24.52;;;;;;;;;;5004587;28;20033;-77
2023/01/20 06:38:20;;;;;;;32.35;26.02;;;;;;;;;;5005015;28;20034;-78
2023/01/20 06:40:45;;;;;;;102.88;52.30;;;;;;;;;;5005939;28;20121;-77
2023/01/20 06:43:10;;;;;;;72.13;49.30;;;;;;;;;;5004419;28;20052;-78
2023/01/20 06:45:37;;;;;;;76.03;64.50;;;;;;;;;;5004959;28;20488;-76
2023/01/20 06:48:02;;;;;;;112.18;94.60;;;;;;;;;;5004476;28;20364;-76
2023/01/20 06:50:27;;;;;;;113.13;89.13;;;;;;;;;;5005207;28;20042;-76
2023/01/20 06:52:53;;;;;;;110.47;85.10;;;;;;;;;;5004833;28;20014;-77
2023/01/20 06:55:18;;;;;;;90.68;69.32;;;;;;;;;;5005491;28;20052;-77
2023/01/20 06:57:43;;;;;;;188.80;161.88;;;;;;;;;;5004272;28;20026;-76
2023/01/20 07:00:10;;;;;;;120.13;96.28;;;;;;;;;;5004404;28;20034;-77
2023/01/20 07:02:35;;;;;;;76.57;64.30;;;;;;;;;;5004982;28;20087;-76
2023/01/20 07:05:01;;;;;;;59.53;48.75;;;;;;;;;;5004904;28;20025;-76
2023/01/20 07:07:26;;;;;;;66.70;50.50;;;;;;;;;;4996497;28;20038;-77
2023/01/20 07:09:54;;;;;;;77.70;65.63;;;;;;;;;;4995326;28;20034;-76
2023/01/20 07:12:20;;;;;;;171.00;131.75;;;;;;;;;;4991269;28;20029;-77
2023/01/20 07:14:45;;;;;;;188.95;160.95;;;;;;;;;;4999596;28;20037;-77
2023/01/20 07:17:11;;;;;;;488.77;275.42;;;;;;;;;;5004612;28;20383;-77
2023/01/20 07:19:36;;;;;;;341.75;160.52;;;;;;;;;;5005811;28;20026;-77
2023/01/20 07:22:01;;;;;;;227.18;117.18;;;;;;;;;;5004404;28;20516;-77
2023/01/20 07:24:27;;;;;;;83.40;62.05;;;;;;;;;;5003447;28;20037;-77
2023/01/20 07:26:52;;;;;;;142.40;95.15;;;;;;;;;;5003293;28;20033;-78
2023/01/20 07:29:18;;;;;;;252.77;126.95;;;;;;;;;;5003790;28;20735;-77
2023/01/20 07:31:44;;;;;;;432.02;198.88;;;;;;;;;;5003328;28;20029;-77
2023/01/20 07:34:09;;;;;;;323.05;173.05;;;;;;;;;;5001030;28;20124;-76
2023/01/20 07:36:35;;;;;;;112.50;85.80;;;;;;;;;;5003568;28;20174;-76
2023/01/20 07:39:00;;;;;;;30.55;24.73;;;;;;;;;;5002519;28;20120;-76
2023/01/20 07:41:25;;;;;;;19.13;13.98;;;;;;;;;;5003370;28;20112;-76
2023/01/20 07:43:51;;;;;;;41.65;27.40;;;;;;;;;;5003931;28;20464;-75
2023/01/20 07:46:17;;;;;;;71.50;40.95;;;;;;;;;;5001297;28;20037;-76
2023/01/20 07:48:42;;;;;;;66.18;39.15;;;;;;;;;;5003392;28;20061;-77
2023/01/20 07:51:23;;;;;;;77.18;59.22;;;;;;;;;;5003302;28;20511;-77
2023/01/20 07:53:50;;;;;;;167.05;127.03;;;;;;;;;;4989248;28;20025;-77
2023/01/20 07:56:17;;;;;;;119.32;97.35;;;;;;;;;;4991154;28;21023;-77
2023/01/20 07:58:44;;;;;;;139.45;113.30;;;;;;;;;;4990369;28;20453;-77
2023/01/20 08:01:13;;;;;;;112.07;92.88;;;;;;;;;;4989914;28;20414;-76
2023/01/20 08:03:38;;;;;;;72.63;64.63;;;;;;;;;;4987324;28;20021;-77
2023/01/20 08:06:05;;;;;;;56.80;47.33;;;;;;;;;;4992336;28;20350;-76
2023/01/20 08:08:33;;;;;;;53.83;39.60;;;;;;;;;;4990415;28;20200;-77
2023/01/20 08:11:00;;;;;;;56.28;41.20;;;;;;;;;;4990837;28;20053;-77
2023/01/20 08:13:26;;;;;;;63.38;44.42;;;;;;;;;;4990091;28;20032;-76
2023/01/20 08:15:51;;;;;;;50.13;38.53;;;;;;;;;;4989542;28;20113;-76
2023/01/20 08:18:16;;;;;;;26.95;22.80;;;;;;;;;;4987485;28;20035;-77
2023/01/20 08:20:42;;;;;;;348.40;217.43;;;;;;;;;;4989528;28;20453;-77
2023/01/20 08:23:07;;;;;;;126.00;87.13;;;;;;;;;;4998671;28;20038;-76
2023/01/20 08:25:32;;;;;;;33.28;27.40;;;;;;;;;;5002718;28;20038;-76
2023/01/20 08:27:58;;;;;;;47.53;37.90;;;;;;;;;;5003006;28;20129;-76
2023/01/20 08:30:23;;;;;;;51.00;39.70;;;;;;;;;;5002866;28;20048;-76
2023/01/20 08:32:48;;;;;;;59.80;42.95;;;;;;;;;;5002870;28;20080;-77
2023/01/20 08:35:14;;;;;;;20.20;16.23;;;;;;;;;;5001865;28;20325;-76
2023/01/20 08:37:39;;;;;;;26.48;23.65;;;;;;;;;;5001876;28;20033;-77
2023/01/20 08:40:07;;;;;;;34.35;29.05;;;;;;;;;;5003238;28;20373;-77
2023/01/20 08:42:32;;;;;;;71.50;61.40;;;;;;;;;;5003724;28;20058;-76
2023/01/20 08:44:57;;;;;;;40.47;36.28;;;;;;;;;;5003321;28;20018;-76
2023/01/20 08:47:23;;;;;;;43.95;37.42;;;;;;;;;;5004349;28;21291;-77
2023/01/20 08:49:48;;;;;;;62.63;49.30;;;;;;;;;;5004731;28;20434;-75
2023/01/20 08:52:13;;;;;;;32.40;27.42;;;;;;;;;;5002488;28;20109;-77
2023/01/20 08:54:38;;;;;;;51.95;41.30;;;;;;;;;;5003580;28;20096;-77
2023/01/20 08:57:04;;;;;;;54.60;43.85;;;;;;;;;;5002842;28;20516;-76
2023/01/20 08:59:29;;;;;;;40.95;33.70;;;;;;;;;;5003728;28;20065;-76
2023/01/20 09:01:54;;;;;;;24.25;19.52;;;;;;;;;;5003706;28;20034;-76
2023/01/20 09:04:20;;;;;;;16.35;12.63;;;;;;;;;;5005179;28;20362;-76
2023/01/20 09:06:48;;;;;;;18.35;13.48;;;;;;;;;;5003757;28;20022;-77
2023/01/20 09:09:14;;;;;;;11.65;8.80;;;;;;;;;;5004194;28;20045;-76
2023/01/20 09:11:39;;;;;;;16.98;12.88;;;;;;;;;;5001440;28;20026;-77
2023/01/20 09:14:05;;;;;;;20.80;16.80;;;;;;;;;;5005172;28;20057;-76
2023/01/20 09:16:30;;;;;;;19.05;16.13;;;;;;;;;;5006649;28;20041;-76
2023/01/20 09:18:55;;;;;;;20.65;17.73;;;;;;;;;;5007247;28;20037;-76
2023/01/20 09:21:20;;;;;;;19.60;15.98;;;;;;;;;;5007787;28;20029;-78
2023/01/20 09:23:47;;;;;;;12.73;10.25;;;;;;;;;;5005759;28;20056;-76
2023/01/20 09:26:12;;;;;;;15.07;9.75;;;;;;;;;;5006700;28;20037;-81
2023/01/20 09:28:38;;;;;;;17.45;13.77;;;;;;;;;;5007253;28;20350;-76
2023/01/20 09:31:05;;;;;;;18.25;11.77;;;;;;;;;;5006852;28;20061;-75
2023/01/20 09:33:31;;;;;;;12.73;10.88;;;;;;;;;;5006923;28;20457;-75
2023/01/20 09:35:57;;;;;;;17.08;13.27;;;;;;;;;;5007336;28;20188;-77
2023/01/20 09:44:07;;;;;;;26.90;19.42;;;;;;;;;;5006513;28;20120;-78
2023/01/20 09:46:39;;;;;;;27.55;22.90;;;;;;;;;;5005117;28;20679;-75
2023/01/20 09:54:50;;;;;;;40.72;24.98;;;;;;;;;;5005201;28;20091;-76
2023/01/20 09:57:17;;;;;;;29.50;20.25;;;;;;;;;;5006720;28;20495;-75
2023/01/20 09:59:48;;;;;;;37.85;22.42;;;;;;;;;;5004729;28;20045;-77
2023/01/20 10:02:21;;;;;;;49.17;31.25;;;;;;;;;;5007448;28;20030;-75
2023/01/20 10:04:51;;;;;;;56.05;34.08;;;;;;;;;;4996459;28;20039;-76
2023/01/20 10:07:23;;;;;;;77.35;41.35;;;;;;;;;;4992831;28;20034;-77
2023/01/20 10:09:48;;;;;;;94.20;53.35;;;;;;;;;;4994332;28;20118;-76
2023/01/20 10:12:14;;;;;;;60.20;33.28;;;;;;;;;;4991219;28;20109;-76
2023/01/20 10:14:45;;;;;;;47.92;30.77;;;;;;;;;;4990862;28;20461;-76
2023/01/20 10:17:16;;;;;;;17.48;11.75;;;;;;;;;;4995444;28;20030;-77
2023/01/20 10:20:04;;;;;;;41.67;24.20;;;;;;;;;;4993755;28;20034;-76
2023/01/20 10:22:38;;;;;;;46.28;29.15;;;;;;;;;;4987791;28;20045;-75
2023/01/20 10:25:22;;;;;;;28.15;18.15;;;;;;;;;;4994144;28;20554;-78
2023/01/20 10:27:50;;;;;;;38.47;21.75;;;;;;;;;;5004857;28;20168;-77
2023/01/20 10:30:16;;;;;;;60.88;34.35;;;;;;;;;;5005884;28;20104;-77
2023/01/20 10:32:47;;;;;;;34.15;24.02;;;;;;;;;;5006041;28;20026;-78
2023/01/20 10:35:17;;;;;;;24.60;21.90;;;;;;;;;;5006256;28;20029;-77
2023/01/20 10:37:43;;;;;;;16.55;13.05;;;;;;;;;;5006135;28;20036;-77
2023/01/20 10:40:08;;;;;;;42.65;32.78;;;;;;;;;;5006044;28;20384;-78
2023/01/20 10:42:33;;;;;;;43.85;34.45;;;;;;;;;;5004687;28;20050;-78
2023/01/20 10:44:59;;;;;;;44.28;35.55;;;;;;;;;;5004981;28;20129;-78
2023/01/20 10:47:30;;;;;;;37.33;31.75;;;;;;;;;;5006897;28;20041;-77
2023/01/20 10:50:14;;;;;;;55.40;30.88;;;;;;;;;;5005416;28;20029;-78
2023/01/20 10:52:45;;;;;;;37.67;20.85;;;;;;;;;;5005750;28;20037;-77
2023/01/20 10:55:10;;;;;;;29.95;20.10;;;;;;;;;;5005384;28;20045;-77
2023/01/20 10:57:37;;;;;;;17.23;15.52;;;;;;;;;;5004951;28;20026;-76
2023/01/20 11:00:06;;;;;;;12.20;11.20;;;;;;;;;;5006551;28;20034;-77
2023/01/20 11:02:36;;;;;;;9.73;7.00;;;;;;;;;;5005666;28;20026;-76
2023/01/20 11:05:22;;;;;;;43.92;22.98;;;;;;;;;;5004364;28;20041;-77
2023/01/20 11:07:49;;;;;;;32.08;17.35;;;;;;;;;;5005346;28;20041;-77
2023/01/20 11:10:18;;;;;;;68.07;38.50;;;;;;;;;;5005216;28;20034;-76
2023/01/20 11:12:43;;;;;;;;;;;;;;;;;;5005328;28;20127;-79
2023/01/20 11:15:17;;;;;;;25.92;20.75;;;;;;;;;;5004996;28;19963;-79
2023/01/20 11:17:43;;;;;;;40.35;29.42;;;;;;;;;;5005634;28;20033;-77
2023/01/20 11:20:13;;;;;;;45.00;35.08;;;;;;;;;;5005090;28;20030;-78
2023/01/20 11:22:38;;;;;;;73.88;54.20;;;;;;;;;;5005832;28;20022;-76
2023/01/20 11:25:04;;;;;;;45.53;36.08;;;;;;;;;;5005604;28;20052;-77
2023/01/20 11:27:36;;;;;;;68.82;54.47;;;;;;;;;;5006031;28;20032;-77
2023/01/20 11:30:05;;;;;;;129.02;105.30;;;;;;;;;;5004576;28;20037;-77
2023/01/20 11:32:30;;;;;;;;;;;;;;;;;;5005225;28;20025;-79
2023/01/20 11:34:56;;;;;;;75.07;53.23;;;;;;;;;;5004295;28;19926;-77
2023/01/20 11:37:24;;;;;;;127.68;93.55;;;;;;;;;;5003821;28;20420;-77
2023/01/20 11:39:49;;;;;;;209.77;186.65;;;;;;;;;;5002604;28;20323;-76
2023/01/20 11:42:26;;;;;;;419.65;345.65;;;;;;;;;;5002332;28;20065;-77
2023/01/20 11:44:52;;;;;;;90.18;72.30;;;;;;;;;;5005443;28;20026;-76
2023/01/20 11:47:24;;;;;;;61.20;54.63;;;;;;;;;;5005421;28;20084;-76
2023/01/20 11:50:07;;;;;;;18.13;16.38;;;;;;;;;;5004360;28;20036;-79
2023/01/20 11:52:33;;;;;;;17.02;15.23;;;;;;;;;;5005306;28;20368;-77
2023/01/20 11:55:19;;;;;;;22.70;18.85;;;;;;;;;;5004560;28;20022;-76
2023/01/20 11:57:59;;;;;;;21.50;19.35;;;;;;;;;;5003848;28;20046;-76
2023/01/20 12:00:24;;;;;;;28.50;25.73;;;;;;;;;;5004923;28;20423;-77
2023/01/20 12:03:01;;;;;;;23.88;21.63;;;;;;;;;;5002968;28;20061;-76
2023/01/20 12:05:47;;;;;;;22.88;20.52;;;;;;;;;;5004671;28;20272;-76
2023/01/20 12:08:17;;;;;;;11.80;10.57;;;;;;;;;;5005105;28;20092;-77
2023/01/20 12:10:43;;;;;;;12.55;11.25;;;;;;;;;;5004159;28;20038;-78
2023/01/20 12:13:26;;;;;;;42.42;32.85;;;;;;;;;;5003976;28;20076;-79
2023/01/20 12:15:53;;;;;;;20.63;18.50;;;;;;;;;;5004750;28;20132;-78
2023/01/20 12:18:31;;;;;;;25.83;23.13;;;;;;;;;;5005113;28;20088;-76
2023/01/20 12:21:00;;;;;;;13.25;11.85;;;;;;;;;;5004665;28;20465;-76
2023/01/20 12:23:25;;;;;;;11.77;10.55;;;;;;;;;;5005163;28;20025;-76
2023/01/20 12:25:54;;;;;;;36.17;30.42;;;;;;;;;;5003686;28;20354;-76
2023/01/20 12:28:28;;;;;;;19.23;14.70;;;;;;;;;;5004211;28;20026;-76
2023/01/20 12:30:54;;;;;;;14.88;11.10;;;;;;;;;;5003639;28;20083;-77
2023/01/20 12:33:23;;;;;;;14.55;12.02;;;;;;;;;;5003930;28;20025;-77
2023/01/20 12:36:07;;;;;;;10.95;9.85;;;;;;;;;;5003471;28;20030;-76
2023/01/20 12:38:37;;;;;;;13.38;11.60;;;;;;;;;;5005996;28;20459;-76
2023/01/20 12:41:06;;;;;;;29.98;26.40;;;;;;;;;;5003648;28;20048;-77
2023/01/20 12:43:53;;;;;;;16.10;14.40;;;;;;;;;;5003199;28;20634;-77
2023/01/20 12:46:31;;;;;;;11.73;10.50;;;;;;;;;;5003492;28;20021;-78
2023/01/20 12:49:28;;;;;;;27.73;21.67;;;;;;;;;;5005193;28;20048;-76
2023/01/20 12:51:53;;;;;;;13.80;12.45;;;;;;;;;;5008419;28;20243;-76
2023/01/20 12:54:37;;;;;;;22.08;19.92;;;;;;;;;;5007406;28;20371;-76
2023/01/20 12:57:05;;;;;;;14.30;11.02;;;;;;;;;;5006261;28;20357;-76
2023/01/20 12:59:35;;;;;;;16.42;13.98;;;;;;;;;;5006969;28;20453;-76
2023/01/20 13:02:23;;;;;;;17.63;15.73;;;;;;;;;;5006283;28;20034;-76
2023/01/20 13:05:12;;;;;;;13.45;12.15;;;;;;;;;;5006722;28;20034;-77
2023/01/20 13:07:46;;;;;;;18.52;16.55;;;;;;;;;;4997496;28;20062;-76
2023/01/20 13:10:24;;;;;;;19.90;17.50;;;;;;;;;;5005087;28;20065;-77
2023/01/20 13:13:01;;;;;;;24.45;22.02;;;;;;;;;;5006355;28;20040;-76
2023/01/20 13:15:27;;;;;;;12.68;11.50;;;;;;;;;;5007093;28;20458;-77
2023/01/20 13:17:53;;;;;;;28.05;25.35;;;;;;;;;;5006145;28;20129;-78
2023/01/20 13:20:21;;;;;;;23.17;21.15;;;;;;;;;;5004938;28;20448;-81
2023/01/20 13:22:47;;;;;;;45.75;40.80;;;;;;;;;;5007177;28;20088;-76
2023/01/20 13:25:13;;;;;;;83.63;56.83;;;;;;;;;;5006121;28;20036;-76
2023/01/20 13:27:39;;;;;;;125.22;81.43;;;;;;;;;;5007693;28;20049;-78
2023/01/20 13:30:05;;;;;;;53.90;40.63;;;;;;;;;;5009781;28;20489;-76
2023/01/20 13:32:47;;;;;;;15.52;13.98;;;;;;;;;;5010230;28;20119;-76
2023/01/20 13:35:19;;;;;;;25.42;21.27;;;;;;;;;;4999816;28;20033;-77
2023/01/20 13:37:48;;;;;;;31.58;25.95;;;;;;;;;;5009429;28;20037;-77
2023/01/20 13:40:31;;;;;;;33.28;24.60;;;;;;;;;;5011712;28;20018;-77
2023/01/20 13:42:57;;;;;;;25.52;22.23;;;;;;;;;;5009160;28;20133;-77
2023/01/20 13:45:23;;;;;;;27.48;24.60;;;;;;;;;;5009283;28;20541;-77
2023/01/20 13:48:09;;;;;;;232.18;119.55;;;;;;;;;;5009989;28;20037;-75
2023/01/20 13:50:38;;;;;;;54.05;42.78;;;;;;;;;;5009141;28;20014;-78
2023/01/20 13:53:10;;;;;;;62.47;49.58;;;;;;;;;;5009682;28;20052;-76
2023/01/20 13:55:35;;;;;;;55.92;42.60;;;;;;;;;;5009953;28;20041;-75
2023/01/20 13:58:00;;;;;;;53.75;38.85;;;;;;;;;;5009919;28;20433;-76
2023/01/20 14:00:25;;;;;;;37.58;30.73;;;;;;;;;;4999939;28;20022;-76
2023/01/20 14:02:51;;;;;;;67.50;52.92;;;;;;;;;;5004497;28;20501;-77
2023/01/20 14:05:35;;;;;;;32.85;25.90;;;;;;;;;;5006749;28;20044;-77
2023/01/20 14:08:00;;;;;;;46.58;33.70;;;;;;;;;;5005779;28;20117;-75
2023/01/20 14:10:26;;;;;;;54.85;42.53;;;;;;;;;;5003163;28;20132;-75
2023/01/20 14:12:52;;;;;;;38.17;29.02;;;;;;;;;;4998932;28;20110;-78
2023/01/20 14:15:25;;;;;;;59.45;46.03;;;;;;;;;;5004869;28;20010;-75
2023/01/20 14:17:54;;;;;;;86.78;66.40;;;;;;;;;;5005809;28;20030;-76
2023/01/20 14:20:22;;;;;;;25.38;19.38;;;;;;;;;;5006020;28;20157;-77
2023/01/20 14:22:48;;;;;;;36.88;28.63;;;;;;;;;;5006816;28;20982;-74
2023/01/20 14:25:23;;;;;;;30.60;24.65;;;;;;;;;;5006722;28;20620;-74
2023/01/20 14:27:48;;;;;;;18.33;14.95;;;;;;;;;;5006242;28;20036;-73
2023/01/20 14:30:24;;;;;;;117.28;82.25;;;;;;;;;;5005690;28;20038;-74
2023/01/20 14:32:50;;;;;;;77.63;56.08;;;;;;;;;;5004617;28;20064;-74